SSEC Globe Logo

Space Science and Engineering Center

Regional Terminal Forecasts

KMSN 150520Z 1506/1606 29005KT P6SM BKN040 FM150700 32008KT
     P6SM BKN024 FM151100 32007KT P6SM BKN040 FM151500
     33011G19KT P6SM BKN026 FM151800 33010G17KT P6SM BKN035
     FM160100 31005KT P6SM FEW040=
KMKE 150520Z 1506/1612 29009KT 6SM -SHRA BR BKN040 FM150800
     31011G17KT P6SM BKN035 FM152100 04008KT P6SM BKN035
     FM160000 01005KT P6SM BKN035 FM161100 33005KT P6SM
     FEW250=
KGRB 150520Z 1506/1606 32009KT P6SM -SHRASN BKN022 TEMPO
     1506/1510 4SM -SHRA BKN015 FM151000 32011G19KT P6SM
     BKN018 FM151500 34010KT P6SM SCT022 FM152100 35009KT
     P6SM BKN027 FM160200 36007KT P6SM SCT027=
TAF AMD KAUW 150620Z 1506/1606 33009KT P6SM SCT015 OVC035
     TEMPO 1507/1510 BKN015 FM151000 33009G16KT P6SM BKN015
     FM151700 34010KT P6SM SCT015 FM152300 35008KT P6SM
     FEW022 FM160400 35005KT P6SM SKC=
TAF KEAU 150520Z 1506/1606 32008KT P6SM BKN028 FM151200
     32006KT P6SM BKN016 OVC025 FM151700 33010KT P6SM BKN021
     FM152100 34010KT P6SM SCT030 FM160400 VRB03KT P6SM
     SCT080=
TAF KLSE 150523Z 1506/1606 32005KT P6SM SCT035 FM150900
     32007KT P6SM BKN020 FM151500 32009KT P6SM BKN025
     FM152200 32010KT P6SM SCT030=
KDBQ 150815Z 1508/1606 31009KT P6SM BKN020 FM151800 32011KT
     P6SM BKN035 FM160200 34005KT P6SM SCT040=
TAF KRFD 150529Z 1506/1606 30008KT P6SM BKN040 FM150800
     34012G18KT P6SM BKN035 FM151700 32011G17KT P6SM BKN050
     FM160100 33008KT P6SM SCT050=
KORD 150529Z 1506/1612 29011KT P6SM OVC040 FM150900
     33012G20KT P6SM BKN025 FM151800 33011G19KT P6SM BKN050
     FM151900 04012KT P6SM SCT050 FM160100 33008KT P6SM
     SCT050=